Time,TemperatureF,DewpointF,PressureIn,WindDirection,WindDirectionDegrees,WindSpeedMPH,WindSpeedGustMPH,Humidity,HourlyPrecipIn,Conditions,Clouds,dailyrainin,SoftwareType,DateUTC
2013-03-27 00:00:00,35.1,24.0,29.41,WNW,290,5.0,10.0,63,0.00,,,0.00,weatherlink.com 1.10,2013-03-27 04:00:00,
2013-03-27 00:15:00,34.9,24.0,29.41,West,281,2.0,8.0,64,0.00,,,0.00,weatherlink.com 1.10,2013-03-27 04:15:00,
2013-03-27 00:31:00,34.5,24.0,29.41,WSW,255,2.0,7.0,65,0.00,,,0.00,weatherlink.com 1.10,2013-03-27 04:31:00,
2013-03-27 00:46:00,33.9,23.0,29.41,West,259,2.0,8.0,65,0.00,,,0.00,weatherlink.com 1.10,2013-03-27 04:46:00,
2013-03-27 01:01:00,33.5,23.0,29.41,SW,229,4.0,7.0,66,0.00,,,0.00,weatherlink.com 1.10,2013-03-27 05:01:00,
2013-03-27 01:16:00,33.1,23.0,29.41,West,264,3.0,7.0,67,0.00,,,0.00,weatherlink.com 1.10,2013-03-27 05:16:00,
2013-03-27 02:16:00,31.7,23.0,29.41,SW,225,1.0,5.0,70,0.00,,,0.00,weatherlink.com 1.10,2013-03-27 06:16:00,
2013-03-27 02:31:00,31.4,23.0,29.41,SW,229,2.0,5.0,71,0.00,,,0.00,weatherlink.com 1.10,2013-03-27 06:31:00,
2013-03-27 02:46:00,31.2,23.0,29.41,WSW,243,4.0,6.0,72,0.00,,,0.00,weatherlink.com 1.10,2013-03-27 06:46:00,
2013-03-27 03:01:00,31.1,23.0,29.40,WSW,249,6.0,6.0,72,0.00,,,0.00,weatherlink.com 1.10,2013-03-27 07:01:00,
2013-03-27 03:46:00,30.6,23.0,29.39,SW,231,2.0,7.0,74,0.00,,,0.00,weatherlink.com 1.10,2013-03-27 07:46:00,
2013-03-27 04:01:00,30.4,23.0,29.40,SW,233,3.0,6.0,75,0.00,,,0.00,weatherlink.com 1.10,2013-03-27 08:01:00,
2013-03-27 04:16:00,30.2,23.0,29.40,SW,231,5.0,6.0,75,0.00,,,0.00,weatherlink.com 1.10,2013-03-27 08:16:00,
2013-03-27 04:31:00,30.1,23.0,29.40,West,263,2.0,5.0,76,0.00,,,0.00,weatherlink.com 1.10,2013-03-27 08:31:00,
2013-03-27 04:46:00,30.4,24.0,29.40,WSW,242,5.0,6.0,76,0.00,,,0.00,weatherlink.com 1.10,2013-03-27 08:46:00,
2013-03-27 05:01:00,30.6,24.0,29.40,SW,231,2.0,7.0,76,0.00,,,0.00,weatherlink.com 1.10,2013-03-27 09:01:00,
2013-03-27 05:16:00,30.8,24.0,29.41,SW,221,2.0,8.0,76,0.00,,,0.00,weatherlink.com 1.10,2013-03-27 09:16:00,
2013-03-27 05:31:00,30.9,25.0,29.41,WSW,242,5.0,8.0,77,0.00,,,0.00,weatherlink.com 1.10,2013-03-27 09:31:00,
2013-03-27 05:46:00,31.0,25.0,29.41,WSW,257,4.0,9.0,77,0.00,,,0.00,weatherlink.com 1.10,2013-03-27 09:46:00,
2013-03-27 06:01:00,31.0,25.0,29.41,West,263,3.0,7.0,78,0.00,,,0.00,weatherlink.com 1.10,2013-03-27 10:01:00,
2013-03-27 06:16:00,30.9,25.0,29.41,West,275,3.0,8.0,78,0.00,,,0.00,weatherlink.com 1.10,2013-03-27 10:16:00,
2013-03-27 06:31:00,30.8,25.0,29.41,SW,219,3.0,11.0,79,0.00,,,0.00,weatherlink.com 1.10,2013-03-27 10:31:00,
2013-03-27 06:46:00,30.7,25.0,29.42,West,259,3.0,9.0,79,0.00,,,0.00,weatherlink.com 1.10,2013-03-27 10:46:00,
2013-03-27 07:01:00,30.7,25.0,29.42,WNW,287,5.0,12.0,79,0.00,,,0.00,weatherlink.com 1.10,2013-03-27 11:01:00,
2013-03-27 07:16:00,30.8,25.0,29.42,West,267,5.0,9.0,79,0.00,,,0.00,weatherlink.com 1.10,2013-03-27 11:16:00,
2013-03-27 07:31:00,30.6,25.0,29.42,West,259,5.0,10.0,79,0.00,,,0.00,weatherlink.com 1.10,2013-03-27 11:31:00,
2013-03-27 07:46:00,30.6,25.0,29.43,WSW,241,6.0,8.0,80,0.00,,,0.00,weatherlink.com 1.10,2013-03-27 11:46:00,
2013-03-27 08:01:00,30.6,25.0,29.43,West,262,3.0,10.0,80,0.00,,,0.00,weatherlink.com 1.10,2013-03-27 12:01:00,
2013-03-27 08:17:00,30.7,25.0,29.43,West,269,3.0,11.0,80,0.00,,,0.00,weatherlink.com 1.10,2013-03-27 12:17:00,
2013-03-27 08:32:00,31.1,26.0,29.43,West,263,5.0,8.0,80,0.00,,,0.00,weatherlink.com 1.10,2013-03-27 12:32:00,
2013-03-27 08:47:00,31.4,26.0,29.44,SW,228,3.0,8.0,79,0.00,,,0.00,weatherlink.com 1.10,2013-03-27 12:47:00,
2013-03-27 09:02:00,31.6,26.0,29.44,SW,236,5.0,8.0,79,0.00,,,0.00,weatherlink.com 1.10,2013-03-27 13:02:00,
2013-03-27 09:17:00,32.5,26.0,29.44,West,271,2.0,14.0,78,0.00,,,0.00,weatherlink.com 1.10,2013-03-27 13:17:00,
2013-03-27 09:32:00,33.7,27.0,29.44,WSW,257,5.0,10.0,75,0.00,,,0.00,weatherlink.com 1.10,2013-03-27 13:32:00,
2013-03-27 09:47:00,34.9,27.0,29.44,WNW,294,3.0,11.0,73,0.00,,,0.00,weatherlink.com 1.10,2013-03-27 13:47:00,
2013-03-27 10:02:00,36.4,27.0,29.44,WSW,248,5.0,12.0,69,0.00,,,0.00,weatherlink.com 1.10,2013-03-27 14:02:00,
2013-03-27 10:17:00,37.5,27.0,29.44,WSW,245,2.0,13.0,66,0.00,,,0.00,weatherlink.com 1.10,2013-03-27 14:17:00,
2013-03-27 10:32:00,38.5,27.0,29.44,South,180,3.0,11.0,64,0.00,,,0.00,weatherlink.com 1.10,2013-03-27 14:32:00,
2013-03-27 10:47:00,39.1,27.0,29.44,West,274,7.0,13.0,63,0.00,,,0.00,weatherlink.com 1.10,2013-03-27 14:47:00,
2013-03-27 11:02:00,40.1,27.0,29.44,West,273,2.0,11.0,61,0.00,,,0.00,weatherlink.com 1.10,2013-03-27 15:02:00,
2013-03-27 11:17:00,40.5,27.0,29.44,WNW,302,3.0,11.0,60,0.00,,,0.00,weatherlink.com 1.10,2013-03-27 15:17:00,
2013-03-27 11:32:00,41.9,27.0,29.44,WNW,288,5.0,11.0,57,0.00,,,0.00,weatherlink.com 1.10,2013-03-27 15:32:00,
2013-03-27 11:47:00,42.0,27.0,29.44,SW,228,4.0,13.0,56,0.00,,,0.00,weatherlink.com 1.10,2013-03-27 15:47:00,
2013-03-27 12:02:00,42.7,27.0,29.44,WNW,301,3.0,14.0,55,0.00,,,0.00,weatherlink.com 1.10,2013-03-27 16:02:00,
2013-03-27 12:17:00,44.4,27.0,29.44,North,6,4.0,12.0,50,0.00,,,0.00,weatherlink.com 1.10,2013-03-27 16:17:00,
2013-03-27 12:32:00,44.4,26.0,29.44,NNE,12,4.0,15.0,49,0.00,,,0.00,weatherlink.com 1.10,2013-03-27 16:32:00,
2013-03-27 12:47:00,45.2,25.0,29.44,West,272,4.0,18.0,46,0.00,,,0.00,weatherlink.com 1.10,2013-03-27 16:47:00,
2013-03-27 13:03:00,45.5,26.0,29.43,SW,217,6.0,16.0,46,0.00,,,0.00,weatherlink.com 1.10,2013-03-27 17:03:00,
2013-03-27 13:17:00,46.3,26.0,29.43,WSW,241,10.0,13.0,46,0.00,,,0.00,weatherlink.com 1.10,2013-03-27 17:17:00,
2013-03-27 13:32:00,47.3,26.0,29.43,West,263,7.0,19.0,44,0.00,,,0.00,weatherlink.com 1.10,2013-03-27 17:32:00,
2013-03-27 13:47:00,46.6,26.0,29.42,WSW,242,7.0,16.0,44,0.00,,,0.00,weatherlink.com 1.10,2013-03-27 17:47:00,
2013-03-27 14:02:00,46.4,25.0,29.42,WSW,253,5.0,15.0,43,0.00,,,0.00,weatherlink.com 1.10,2013-03-27 18:02:00,
2013-03-27 14:17:00,47.7,25.0,29.42,West,274,3.0,14.0,42,0.00,,,0.00,weatherlink.com 1.10,2013-03-27 18:17:00,
2013-03-27 14:32:00,47.3,26.0,29.42,West,264,9.0,15.0,43,0.00,,,0.00,weatherlink.com 1.10,2013-03-27 18:32:00,
2013-03-27 14:47:00,47.6,26.0,29.42,West,278,7.0,14.0,43,0.00,,,0.00,weatherlink.com 1.10,2013-03-27 18:47:00,
2013-03-27 15:02:00,48.9,26.0,29.42,West,266,8.0,14.0,41,0.00,,,0.00,weatherlink.com 1.10,2013-03-27 19:02:00,
2013-03-27 15:17:00,48.9,25.0,29.42,WSW,243,11.0,17.0,40,0.00,,,0.00,weatherlink.com 1.10,2013-03-27 19:17:00,
2013-03-27 15:33:00,48.0,25.0,29.41,SW,217,9.0,12.0,41,0.00,,,0.00,weatherlink.com 1.10,2013-03-27 19:33:00,
2013-03-27 15:48:00,48.6,25.0,29.42,NW,322,12.0,15.0,40,0.00,,,0.00,weatherlink.com 1.10,2013-03-27 19:48:00,
2013-03-27 16:03:00,49.5,26.0,29.41,NW,319,5.0,13.0,40,0.00,,,0.00,weatherlink.com 1.10,2013-03-27 20:03:00,
2013-03-27 16:18:00,48.4,25.0,29.41,WNW,298,5.0,14.0,40,0.00,,,0.00,weatherlink.com 1.10,2013-03-27 20:18:00,
2013-03-27 16:33:00,47.7,25.0,29.41,WNW,292,9.0,15.0,41,0.00,,,0.00,weatherlink.com 1.10,2013-03-27 20:33:00,
2013-03-27 16:48:00,46.2,24.0,29.42,West,278,11.0,16.0,42,0.00,,,0.00,weatherlink.com 1.10,2013-03-27 20:48:00,
2013-03-27 17:03:00,45.7,25.0,29.42,WNW,285,5.0,13.0,44,0.00,,,0.00,weatherlink.com 1.10,2013-03-27 21:03:00,
2013-03-27 17:18:00,45.6,25.0,29.42,SSW,203,3.0,16.0,44,0.00,,,0.00,weatherlink.com 1.10,2013-03-27 21:18:00,
2013-03-27 17:33:00,45.5,25.0,29.42,WNW,288,3.0,12.0,44,0.00,,,0.00,weatherlink.com 1.10,2013-03-27 21:33:00,
2013-03-27 17:48:00,45.7,25.0,29.42,WNW,291,10.0,12.0,44,0.00,,,0.00,weatherlink.com 1.10,2013-03-27 21:48:00,
2013-03-27 18:03:00,46.4,25.0,29.43,West,278,4.0,13.0,44,0.00,,,0.00,weatherlink.com 1.10,2013-03-27 22:03:00,
2013-03-27 18:18:00,45.1,25.0,29.43,SW,224,12.0,14.0,46,0.00,,,0.00,weatherlink.com 1.10,2013-03-27 22:18:00,
2013-03-27 18:33:00,44.3,25.0,29.43,WNW,291,10.0,15.0,47,0.00,,,0.00,weatherlink.com 1.10,2013-03-27 22:33:00,
2013-03-27 18:48:00,44.8,25.0,29.44,WNW,301,8.0,15.0,47,0.00,,,0.00,weatherlink.com 1.10,2013-03-27 22:48:00,
2013-03-27 19:03:00,43.8,26.0,29.44,North,355,3.0,14.0,49,0.00,,,0.00,weatherlink.com 1.10,2013-03-27 23:03:00,
2013-03-27 19:18:00,43.2,26.0,29.45,North,11,5.0,17.0,51,0.00,,,0.00,weatherlink.com 1.10,2013-03-27 23:18:00,
2013-03-27 19:33:00,43.1,26.0,29.45,West,269,6.0,16.0,51,0.00,,,0.00,weatherlink.com 1.10,2013-03-27 23:33:00,
2013-03-27 19:48:00,42.0,26.0,29.45,ENE,63,3.0,10.0,53,0.00,,,0.00,weatherlink.com 1.10,2013-03-27 23:48:00,
2013-03-27 20:03:00,41.3,26.0,29.46,NNW,338,4.0,11.0,54,0.00,,,0.00,weatherlink.com 1.10,2013-03-28 00:03:00,
2013-03-27 20:18:00,41.0,26.0,29.46,NW,308,4.0,10.0,55,0.00,,,0.00,weatherlink.com 1.10,2013-03-28 00:18:00,
2013-03-27 20:33:00,40.9,26.0,29.47,WNW,294,6.0,10.0,55,0.00,,,0.00,weatherlink.com 1.10,2013-03-28 00:33:00,
2013-03-27 20:48:00,40.5,26.0,29.47,NNE,23,4.0,9.0,56,0.00,,,0.00,weatherlink.com 1.10,2013-03-28 00:48:00,
2013-03-27 21:03:00,40.2,25.0,29.47,NW,318,7.0,9.0,56,0.00,,,0.00,weatherlink.com 1.10,2013-03-28 01:03:00,
2013-03-27 21:18:00,40.0,26.0,29.47,NW,319,4.0,8.0,57,0.00,,,0.00,weatherlink.com 1.10,2013-03-28 01:18:00,
2013-03-27 21:33:00,39.3,25.0,29.48,SW,226,3.0,11.0,58,0.00,,,0.00,weatherlink.com 1.10,2013-03-28 01:33:00,
2013-03-27 21:48:00,38.7,25.0,29.48,SW,221,3.0,8.0,59,0.00,,,0.00,weatherlink.com 1.10,2013-03-28 01:48:00,
2013-03-27 22:03:00,37.9,25.0,29.48,WSW,245,1.0,6.0,61,0.00,,,0.00,weatherlink.com 1.10,2013-03-28 02:03:00,
2013-03-27 22:18:00,37.3,25.0,29.49,NNW,345,1.0,5.0,62,0.00,,,0.00,weatherlink.com 1.10,2013-03-28 02:18:00,
2013-03-27 22:33:00,36.6,25.0,29.49,SW,226,3.0,3.0,63,0.00,,,0.00,weatherlink.com 1.10,2013-03-28 02:33:00,
2013-03-27 22:48:00,36.3,25.0,29.49,West,268,1.0,6.0,64,0.00,,,0.00,weatherlink.com 1.10,2013-03-28 02:48:00,
2013-03-27 23:03:00,35.8,25.0,29.49,West,266,1.0,4.0,65,0.00,,,0.00,weatherlink.com 1.10,2013-03-28 03:03:00,
2013-03-27 23:18:00,35.8,25.0,29.49,West,267,2.0,6.0,65,0.00,,,0.00,weatherlink.com 1.10,2013-03-28 03:18:00,
2013-03-27 23:33:00,35.9,25.0,29.49,WSW,252,1.0,7.0,65,0.00,,,0.00,weatherlink.com 1.10,2013-03-28 03:33:00,
2013-03-27 23:48:00,35.8,25.0,29.49,SW,233,3.0,7.0,66,0.00,,,0.00,weatherlink.com 1.10,2013-03-28 03:48:00,